BAW46V EDDH-EGLL
Flight info
| Callsign | BAW46V |
|---|---|
| Flight time | 1h 17m |
| Altitude | 36000 |
| Route | WSN5G/33 WSN N125 ITMIZ DCT ABNED L980 LOGAN |
| Aircraft | A320/M-SDE3FGHIRWY/LB1 |
Departure
| Time | 2026-05-05 13:56 |
|---|---|
| Airport | Hamburg Helmut Schmidt Airport (EDDH) |
Arrival
| Time | 2026-05-05 15:13 |
|---|---|
| Airport | London Heathrow Airport (EGLL) |
| Time | Latitude | Longitude | Altitude | Speed | Heading |
|---|---|---|---|---|---|
| 2026-05-05 13:21 | 53.63033 | 10.00349 | 51 ft | 0 kts | 122° |
| 2026-05-05 13:47 | 53.63037 | 10.00336 | 48 ft | 4 kts | 122° |
| 2026-05-05 13:47 | 53.63052 | 10.00298 | 46 ft | 3 kts | 122° |
| 2026-05-05 13:47 | 53.63063 | 10.00271 | 51 ft | 4 kts | 153° |
| 2026-05-05 13:48 | 53.63085 | 10.00262 | 51 ft | 3 kts | 176° |
| 2026-05-05 13:48 | 53.63092 | 10.00261 | 48 ft | 0 kts | 176° |
| 2026-05-05 13:52 | 53.63091 | 10.00261 | 48 ft | 1 kts | 176° |
| 2026-05-05 13:52 | 53.63069 | 10.00257 | 45 ft | 6 kts | 195° |
| 2026-05-05 13:52 | 53.63017 | 10.00204 | 49 ft | 12 kts | 211° |
| 2026-05-05 13:52 | 53.62967 | 10.00154 | 47 ft | 13 kts | 211° |
| 2026-05-05 13:53 | 53.62894 | 10.00076 | 50 ft | 11 kts | 212° |
| 2026-05-05 13:53 | 53.62846 | 9.99969 | 50 ft | 13 kts | 245° |
| 2026-05-05 13:53 | 53.62809 | 9.99828 | 45 ft | 11 kts | 263° |
| 2026-05-05 13:53 | 53.62841 | 9.99764 | 49 ft | 0 kts | 332° |
| 2026-05-05 13:55 | 53.62846 | 9.99761 | 49 ft | 5 kts | 333° |
| 2026-05-05 13:55 | 53.63075 | 9.99562 | 48 ft | 71 kts | 333° |
| 2026-05-05 13:56 | 53.63695 | 9.99027 | 48 ft | 126 kts | 333° |
| 2026-05-05 13:56 | 53.64609 | 9.98241 | 55 ft | 168 kts | 333° |
| 2026-05-05 13:56 | 53.65706 | 9.97292 | 360 ft | 181 kts | 332° |
| 2026-05-05 13:56 | 53.66846 | 9.96288 | 959 ft | 187 kts | 336° |
| 2026-05-05 13:57 | 53.68020 | 9.95276 | 1617 ft | 194 kts | 336° |
| 2026-05-05 13:57 | 53.69265 | 9.94216 | 2064 ft | 208 kts | 335° |
| 2026-05-05 13:57 | 53.70590 | 9.93036 | 2636 ft | 219 kts | 327° |
| 2026-05-05 13:57 | 53.71587 | 9.91099 | 3462 ft | 223 kts | 296° |
| 2026-05-05 13:58 | 53.71826 | 9.88477 | 4050 ft | 240 kts | 262° |
| 2026-05-05 13:58 | 53.71371 | 9.85632 | 4533 ft | 260 kts | 249° |
| 2026-05-05 13:58 | 53.70669 | 9.82777 | 4920 ft | 264 kts | 247° |
| 2026-05-05 13:58 | 53.69934 | 9.79949 | 4992 ft | 263 kts | 247° |
| 2026-05-05 13:59 | 53.68565 | 9.74234 | 5010 ft | 264 kts | 250° |
| 2026-05-05 13:59 | 53.67935 | 9.71323 | 5029 ft | 263 kts | 251° |
| 2026-05-05 14:00 | 53.66745 | 9.65501 | 5025 ft | 262 kts | 252° |
| 2026-05-05 14:00 | 53.66166 | 9.62585 | 5029 ft | 262 kts | 252° |
| 2026-05-05 14:00 | 53.65599 | 9.59713 | 5027 ft | 262 kts | 251° |
| 2026-05-05 14:00 | 53.64821 | 9.56934 | 5027 ft | 262 kts | 237° |
| 2026-05-05 14:01 | 53.63758 | 9.54419 | 5031 ft | 264 kts | 235° |
| 2026-05-05 14:01 | 53.62676 | 9.51907 | 5099 ft | 268 kts | 235° |
| 2026-05-05 14:01 | 53.61579 | 9.49357 | 5980 ft | 268 kts | 235° |
| 2026-05-05 14:01 | 53.60487 | 9.46815 | 6886 ft | 267 kts | 235° |
| 2026-05-05 14:02 | 53.59395 | 9.44273 | 7736 ft | 269 kts | 234° |
| 2026-05-05 14:02 | 53.58289 | 9.41698 | 8542 ft | 272 kts | 234° |
| 2026-05-05 14:02 | 53.57176 | 9.39106 | 9354 ft | 274 kts | 234° |
| 2026-05-05 14:02 | 53.56048 | 9.36488 | 9796 ft | 277 kts | 234° |
| 2026-05-05 14:03 | 53.54909 | 9.33853 | 9904 ft | 287 kts | 234° |
| 2026-05-05 14:03 | 53.53678 | 9.31003 | 9923 ft | 314 kts | 234° |
| 2026-05-05 14:03 | 53.52385 | 9.28008 | 9922 ft | 320 kts | 234° |
| 2026-05-05 14:03 | 53.51067 | 9.24959 | 9920 ft | 324 kts | 234° |
| 2026-05-05 14:04 | 53.49741 | 9.21895 | 9923 ft | 324 kts | 234° |
| 2026-05-05 14:04 | 53.48414 | 9.18833 | 9926 ft | 325 kts | 234° |
| 2026-05-05 14:04 | 53.47066 | 9.15732 | 10326 ft | 330 kts | 234° |
| 2026-05-05 14:04 | 53.45712 | 9.12618 | 11094 ft | 331 kts | 234° |
| 2026-05-05 14:05 | 53.44348 | 9.09484 | 11776 ft | 334 kts | 234° |
| 2026-05-05 14:05 | 53.42968 | 9.06322 | 12439 ft | 337 kts | 234° |
| 2026-05-05 14:05 | 53.41575 | 9.03133 | 13098 ft | 341 kts | 234° |
| 2026-05-05 14:05 | 53.40165 | 8.99909 | 13745 ft | 345 kts | 234° |
| 2026-05-05 14:06 | 53.38735 | 8.96647 | 14273 ft | 349 kts | 234° |
| 2026-05-05 14:06 | 53.37288 | 8.93345 | 14856 ft | 352 kts | 234° |
| 2026-05-05 14:06 | 53.35835 | 8.90029 | 15448 ft | 355 kts | 235° |
| 2026-05-05 14:06 | 53.34553 | 8.86497 | 16030 ft | 356 kts | 245° |
| 2026-05-05 14:07 | 53.33657 | 8.82659 | 16627 ft | 358 kts | 250° |
| 2026-05-05 14:07 | 53.32803 | 8.78730 | 17238 ft | 361 kts | 250° |
| 2026-05-05 14:07 | 53.31933 | 8.74767 | 17851 ft | 363 kts | 250° |
| 2026-05-05 14:07 | 53.31048 | 8.70786 | 18433 ft | 366 kts | 250° |
| 2026-05-05 14:08 | 53.30154 | 8.66784 | 18983 ft | 368 kts | 250° |
| 2026-05-05 14:08 | 53.29260 | 8.62763 | 19544 ft | 370 kts | 250° |
| 2026-05-05 14:08 | 53.28367 | 8.58710 | 20126 ft | 372 kts | 250° |
| 2026-05-05 14:08 | 53.27473 | 8.54639 | 20684 ft | 374 kts | 250° |
| 2026-05-05 14:09 | 53.26574 | 8.50540 | 21224 ft | 376 kts | 250° |
| 2026-05-05 14:09 | 53.25710 | 8.46407 | 21751 ft | 378 kts | 252° |
| 2026-05-05 14:09 | 53.24903 | 8.42208 | 22259 ft | 380 kts | 252° |
| 2026-05-05 14:09 | 53.24126 | 8.37981 | 22769 ft | 382 kts | 253° |
| 2026-05-05 14:10 | 53.23351 | 8.33716 | 23275 ft | 385 kts | 253° |
| 2026-05-05 14:10 | 53.22580 | 8.29487 | 23716 ft | 387 kts | 253° |
| 2026-05-05 14:10 | 53.21785 | 8.25188 | 24124 ft | 388 kts | 252° |
| 2026-05-05 14:10 | 53.20975 | 8.20881 | 24543 ft | 390 kts | 252° |
| 2026-05-05 14:11 | 53.20152 | 8.16571 | 24964 ft | 391 kts | 252° |
| 2026-05-05 14:11 | 53.19322 | 8.12254 | 25368 ft | 392 kts | 252° |
| 2026-05-05 14:11 | 53.18491 | 8.07926 | 25759 ft | 393 kts | 252° |
| 2026-05-05 14:11 | 53.17667 | 8.03579 | 26140 ft | 394 kts | 252° |
| 2026-05-05 14:12 | 53.16842 | 7.99203 | 26515 ft | 395 kts | 252° |
| 2026-05-05 14:12 | 53.16017 | 7.94822 | 26891 ft | 397 kts | 252° |
| 2026-05-05 14:12 | 53.15188 | 7.90429 | 27267 ft | 398 kts | 251° |
| 2026-05-05 14:12 | 53.14352 | 7.86018 | 27640 ft | 400 kts | 251° |
| 2026-05-05 14:13 | 53.13512 | 7.81602 | 28002 ft | 401 kts | 251° |
| 2026-05-05 14:13 | 53.12665 | 7.77168 | 28363 ft | 403 kts | 251° |
| 2026-05-05 14:13 | 53.11810 | 7.72717 | 28721 ft | 404 kts | 251° |
| 2026-05-05 14:13 | 53.10953 | 7.68256 | 29152 ft | 403 kts | 251° |
| 2026-05-05 14:14 | 53.09989 | 7.63887 | 29673 ft | 400 kts | 246° |
| 2026-05-05 14:14 | 53.08922 | 7.59692 | 30153 ft | 398 kts | 246° |
| 2026-05-05 14:14 | 53.07844 | 7.55462 | 30614 ft | 396 kts | 246° |
| 2026-05-05 14:14 | 53.06775 | 7.51259 | 31085 ft | 393 kts | 246° |
| 2026-05-05 14:15 | 53.05715 | 7.47094 | 31564 ft | 390 kts | 246° |
| 2026-05-05 14:15 | 53.04656 | 7.42947 | 32058 ft | 388 kts | 246° |
| 2026-05-05 14:15 | 53.03604 | 7.38847 | 32532 ft | 385 kts | 245° |
| 2026-05-05 14:15 | 53.02552 | 7.34759 | 32978 ft | 382 kts | 245° |
| 2026-05-05 14:16 | 53.01508 | 7.30704 | 33417 ft | 381 kts | 245° |
| 2026-05-05 14:16 | 53.00468 | 7.26670 | 33869 ft | 379 kts | 245° |
| 2026-05-05 14:16 | 52.99431 | 7.22657 | 34230 ft | 378 kts | 245° |
| 2026-05-05 14:16 | 52.98391 | 7.18630 | 34492 ft | 379 kts | 245° |
| 2026-05-05 14:17 | 52.97364 | 7.14654 | 34731 ft | 380 kts | 245° |
| 2026-05-05 14:17 | 52.96317 | 7.10610 | 34957 ft | 381 kts | 245° |
| 2026-05-05 14:17 | 52.95263 | 7.06558 | 35168 ft | 383 kts | 245° |
| 2026-05-05 14:17 | 52.94204 | 7.02492 | 35375 ft | 385 kts | 245° |
| 2026-05-05 14:18 | 52.93140 | 6.98411 | 35589 ft | 387 kts | 245° |
| 2026-05-05 14:18 | 52.92069 | 6.94308 | 35797 ft | 388 kts | 245° |
| 2026-05-05 14:18 | 52.90989 | 6.90190 | 35913 ft | 391 kts | 245° |
| 2026-05-05 14:18 | 52.89894 | 6.86029 | 35933 ft | 397 kts | 245° |
| 2026-05-05 14:19 | 52.87660 | 6.77554 | 35935 ft | 404 kts | 245° |
| 2026-05-05 14:19 | 52.85419 | 6.69064 | 35930 ft | 405 kts | 245° |
| 2026-05-05 14:20 | 52.83159 | 6.60526 | 35931 ft | 405 kts | 245° |
| 2026-05-05 14:20 | 52.80885 | 6.51981 | 35928 ft | 407 kts | 245° |
| 2026-05-05 14:21 | 52.78596 | 6.43395 | 35929 ft | 408 kts | 245° |
| 2026-05-05 14:21 | 52.76299 | 6.34822 | 35924 ft | 408 kts | 244° |
| 2026-05-05 14:22 | 52.73987 | 6.26246 | 35927 ft | 409 kts | 244° |
| 2026-05-05 14:22 | 52.71671 | 6.17677 | 35925 ft | 409 kts | 244° |
| 2026-05-05 14:23 | 52.69354 | 6.09114 | 35922 ft | 409 kts | 244° |
| 2026-05-05 14:23 | 52.67042 | 6.00608 | 35937 ft | 409 kts | 244° |
| 2026-05-05 14:24 | 52.64704 | 5.92044 | 35927 ft | 410 kts | 244° |
| 2026-05-05 14:24 | 52.62356 | 5.83474 | 35924 ft | 411 kts | 244° |
| 2026-05-05 14:25 | 52.59989 | 5.74897 | 35902 ft | 411 kts | 244° |
| 2026-05-05 14:25 | 52.57634 | 5.66367 | 35907 ft | 412 kts | 244° |
| 2026-05-05 14:26 | 52.55262 | 5.57802 | 35923 ft | 412 kts | 244° |
| 2026-05-05 14:26 | 52.52877 | 5.49227 | 35926 ft | 412 kts | 244° |
| 2026-05-05 14:27 | 52.50483 | 5.40660 | 35925 ft | 413 kts | 243° |
| 2026-05-05 14:27 | 52.48071 | 5.32068 | 35923 ft | 414 kts | 243° |
| 2026-05-05 14:28 | 52.45658 | 5.23491 | 35926 ft | 415 kts | 243° |
| 2026-05-05 14:28 | 52.43235 | 5.14900 | 35930 ft | 415 kts | 243° |
| 2026-05-05 14:29 | 52.40808 | 5.06325 | 35924 ft | 415 kts | 243° |
| 2026-05-05 14:29 | 52.38372 | 4.97740 | 35927 ft | 415 kts | 243° |
| 2026-05-05 14:30 | 52.35923 | 4.89159 | 35922 ft | 417 kts | 243° |
| 2026-05-05 14:30 | 52.33472 | 4.80624 | 35917 ft | 418 kts | 243° |
| 2026-05-05 14:31 | 52.30993 | 4.72025 | 35919 ft | 419 kts | 243° |
| 2026-05-05 14:31 | 52.28507 | 4.63408 | 35927 ft | 419 kts | 243° |
| 2026-05-05 14:32 | 52.26013 | 4.54796 | 35932 ft | 420 kts | 243° |
| 2026-05-05 14:32 | 52.23509 | 4.46182 | 35939 ft | 420 kts | 243° |
| 2026-05-05 14:33 | 52.21019 | 4.37636 | 35941 ft | 420 kts | 243° |
| 2026-05-05 14:33 | 52.18491 | 4.28991 | 35930 ft | 420 kts | 242° |
| 2026-05-05 14:34 | 52.16120 | 4.20924 | 35939 ft | 420 kts | 242° |
| 2026-05-05 14:34 | 52.13583 | 4.12330 | 35948 ft | 420 kts | 242° |
| 2026-05-05 14:35 | 52.11043 | 4.03770 | 35945 ft | 420 kts | 242° |
| 2026-05-05 14:35 | 52.08513 | 3.95263 | 35947 ft | 420 kts | 242° |
| 2026-05-05 14:36 | 52.05959 | 3.86704 | 35952 ft | 422 kts | 242° |
| 2026-05-05 14:36 | 52.03896 | 3.79781 | 35943 ft | 423 kts | 242° |
| 2026-05-05 14:37 | 52.01834 | 3.72889 | 35935 ft | 424 kts | 242° |
| 2026-05-05 14:37 | 51.99244 | 3.64276 | 35949 ft | 424 kts | 242° |
| 2026-05-05 14:38 | 51.96645 | 3.55667 | 35940 ft | 425 kts | 242° |
| 2026-05-05 14:38 | 51.94486 | 3.48516 | 35948 ft | 425 kts | 242° |
| 2026-05-05 14:39 | 51.91453 | 3.38514 | 35959 ft | 425 kts | 242° |
| 2026-05-05 14:39 | 51.88826 | 3.29905 | 35955 ft | 426 kts | 242° |
| 2026-05-05 14:40 | 51.86638 | 3.22748 | 35957 ft | 427 kts | 242° |
| 2026-05-05 14:40 | 51.84722 | 3.13643 | 35947 ft | 431 kts | 259° |
| 2026-05-05 14:41 | 51.84078 | 3.03974 | 35949 ft | 433 kts | 262° |
| 2026-05-05 14:41 | 51.83450 | 2.94282 | 35953 ft | 433 kts | 262° |
| 2026-05-05 14:42 | 51.82807 | 2.84598 | 35964 ft | 433 kts | 262° |
| 2026-05-05 14:42 | 51.82150 | 2.74900 | 35963 ft | 433 kts | 262° |
| 2026-05-05 14:43 | 51.81489 | 2.65218 | 35964 ft | 433 kts | 261° |
| 2026-05-05 14:43 | 51.80824 | 2.55597 | 35630 ft | 434 kts | 261° |
| 2026-05-05 14:44 | 51.80483 | 2.50710 | 34777 ft | 439 kts | 261° |
| 2026-05-05 14:44 | 51.80141 | 2.45802 | 34034 ft | 440 kts | 261° |
| 2026-05-05 14:44 | 51.79798 | 2.40866 | 33222 ft | 441 kts | 261° |
| 2026-05-05 14:44 | 51.79455 | 2.35987 | 32808 ft | 433 kts | 261° |
| 2026-05-05 14:45 | 51.79112 | 2.31174 | 32292 ft | 428 kts | 261° |
| 2026-05-05 14:45 | 51.78766 | 2.26414 | 31786 ft | 424 kts | 261° |
| 2026-05-05 14:45 | 51.78427 | 2.21764 | 31278 ft | 421 kts | 261° |
| 2026-05-05 14:45 | 51.78113 | 2.17083 | 30779 ft | 417 kts | 262° |
| 2026-05-05 14:46 | 51.77836 | 2.12436 | 30292 ft | 414 kts | 262° |
| 2026-05-05 14:46 | 51.77579 | 2.07808 | 29762 ft | 412 kts | 262° |
| 2026-05-05 14:46 | 51.77332 | 2.03220 | 29263 ft | 408 kts | 262° |
| 2026-05-05 14:46 | 51.77081 | 1.98681 | 28785 ft | 403 kts | 262° |
| 2026-05-05 14:47 | 51.76819 | 1.94190 | 28301 ft | 400 kts | 262° |
| 2026-05-05 14:47 | 51.76548 | 1.89744 | 27835 ft | 397 kts | 262° |
| 2026-05-05 14:47 | 51.76274 | 1.85319 | 27376 ft | 395 kts | 262° |
| 2026-05-05 14:47 | 51.76003 | 1.80927 | 26917 ft | 392 kts | 262° |
| 2026-05-05 14:48 | 51.75735 | 1.76561 | 26476 ft | 390 kts | 262° |
| 2026-05-05 14:48 | 51.75464 | 1.72210 | 26037 ft | 389 kts | 262° |
| 2026-05-05 14:48 | 51.75186 | 1.67858 | 25607 ft | 388 kts | 261° |
| 2026-05-05 14:48 | 51.74914 | 1.63583 | 25191 ft | 387 kts | 262° |
| 2026-05-05 14:49 | 51.74641 | 1.59260 | 24730 ft | 387 kts | 262° |
| 2026-05-05 14:49 | 51.74365 | 1.54907 | 24118 ft | 392 kts | 262° |
| 2026-05-05 14:49 | 51.74084 | 1.50504 | 23525 ft | 396 kts | 262° |
| 2026-05-05 14:49 | 51.73797 | 1.46050 | 22862 ft | 399 kts | 263° |
| 2026-05-05 14:50 | 51.73511 | 1.41605 | 22274 ft | 399 kts | 262° |
| 2026-05-05 14:50 | 51.73224 | 1.37161 | 21682 ft | 399 kts | 262° |
| 2026-05-05 14:50 | 51.72934 | 1.32712 | 21135 ft | 398 kts | 263° |
| 2026-05-05 14:50 | 51.72643 | 1.28288 | 20566 ft | 396 kts | 262° |
| 2026-05-05 14:51 | 51.72354 | 1.23912 | 19878 ft | 387 kts | 263° |
| 2026-05-05 14:51 | 51.72073 | 1.19671 | 19317 ft | 373 kts | 263° |
| 2026-05-05 14:51 | 51.71803 | 1.15618 | 18776 ft | 364 kts | 263° |
| 2026-05-05 14:51 | 51.71531 | 1.11571 | 18234 ft | 363 kts | 263° |
| 2026-05-05 14:52 | 51.71254 | 1.07517 | 17639 ft | 363 kts | 263° |
| 2026-05-05 14:52 | 51.70976 | 1.03480 | 17088 ft | 359 kts | 263° |
| 2026-05-05 14:52 | 51.70702 | 0.99518 | 16569 ft | 356 kts | 263° |
| 2026-05-05 14:52 | 51.70429 | 0.95557 | 16027 ft | 356 kts | 264° |
| 2026-05-05 14:53 | 51.70156 | 0.91593 | 15508 ft | 353 kts | 264° |
| 2026-05-05 14:53 | 51.69888 | 0.87727 | 15005 ft | 344 kts | 264° |
| 2026-05-05 14:53 | 51.69623 | 0.83909 | 14510 ft | 341 kts | 264° |
| 2026-05-05 14:53 | 51.69356 | 0.80108 | 14016 ft | 340 kts | 264° |
| 2026-05-05 14:54 | 51.69093 | 0.76383 | 13511 ft | 337 kts | 264° |
| 2026-05-05 14:54 | 51.68826 | 0.72652 | 12994 ft | 334 kts | 264° |
| 2026-05-05 14:54 | 51.68562 | 0.68941 | 12514 ft | 333 kts | 264° |
| 2026-05-05 14:54 | 51.68297 | 0.65221 | 12023 ft | 332 kts | 264° |
| 2026-05-05 14:55 | 51.68035 | 0.61526 | 11537 ft | 332 kts | 264° |
| 2026-05-05 14:55 | 51.67770 | 0.57841 | 11056 ft | 331 kts | 264° |
| 2026-05-05 14:55 | 51.67508 | 0.54242 | 10867 ft | 312 kts | 264° |
| 2026-05-05 14:55 | 51.67317 | 0.51633 | 10630 ft | 300 kts | 264° |
| 2026-05-05 14:56 | 51.67144 | 0.49333 | 10412 ft | 295 kts | 264° |
| 2026-05-05 14:56 | 51.66903 | 0.46076 | 10162 ft | 291 kts | 264° |
| 2026-05-05 14:56 | 51.66665 | 0.42856 | 9888 ft | 289 kts | 264° |
| 2026-05-05 14:56 | 51.66428 | 0.39632 | 9436 ft | 291 kts | 264° |
| 2026-05-05 14:57 | 51.66189 | 0.36398 | 9079 ft | 289 kts | 264° |
| 2026-05-05 14:57 | 51.65948 | 0.33164 | 8685 ft | 289 kts | 264° |
| 2026-05-05 14:57 | 51.65708 | 0.29968 | 8353 ft | 287 kts | 264° |
| 2026-05-05 14:57 | 51.65467 | 0.26769 | 7981 ft | 287 kts | 264° |
| 2026-05-05 14:58 | 51.65228 | 0.23595 | 7656 ft | 285 kts | 265° |
| 2026-05-05 14:58 | 51.64992 | 0.20486 | 7535 ft | 271 kts | 264° |
| 2026-05-05 14:58 | 51.64768 | 0.17568 | 7330 ft | 256 kts | 265° |
| 2026-05-05 14:58 | 51.64554 | 0.14741 | 7055 ft | 253 kts | 265° |
| 2026-05-05 14:59 | 51.64381 | 0.11998 | 6918 ft | 246 kts | 266° |
| 2026-05-05 14:59 | 51.64238 | 0.09253 | 6858 ft | 246 kts | 268° |
| 2026-05-05 14:59 | 51.64102 | 0.06505 | 6808 ft | 247 kts | 267° |
| 2026-05-05 14:59 | 51.63963 | 0.03751 | 6752 ft | 246 kts | 266° |
| 2026-05-05 15:00 | 51.63818 | 0.01022 | 6696 ft | 245 kts | 266° |
| 2026-05-05 15:00 | 51.63719 | -0.00825 | 6720 ft | 245 kts | 265° |
| 2026-05-05 15:00 | 51.63524 | -0.04351 | 6654 ft | 245 kts | 267° |
| 2026-05-05 15:00 | 51.63368 | -0.07111 | 6602 ft | 244 kts | 267° |
| 2026-05-05 15:01 | 51.63215 | -0.09838 | 6555 ft | 245 kts | 266° |
| 2026-05-05 15:01 | 51.63062 | -0.12569 | 6456 ft | 244 kts | 266° |
| 2026-05-05 15:01 | 51.62910 | -0.15288 | 6325 ft | 243 kts | 266° |
| 2026-05-05 15:01 | 51.62755 | -0.17997 | 6199 ft | 243 kts | 267° |
| 2026-05-05 15:02 | 51.62599 | -0.20714 | 6066 ft | 243 kts | 266° |
| 2026-05-05 15:02 | 51.62443 | -0.23416 | 5940 ft | 242 kts | 266° |
| 2026-05-05 15:02 | 51.62288 | -0.26104 | 6038 ft | 242 kts | 266° |
| 2026-05-05 15:02 | 51.62131 | -0.28804 | 6052 ft | 238 kts | 267° |
| 2026-05-05 15:03 | 51.61979 | -0.31347 | 6058 ft | 224 kts | 266° |
| 2026-05-05 15:03 | 51.61832 | -0.33833 | 5978 ft | 222 kts | 265° |
| 2026-05-05 15:03 | 51.61689 | -0.36281 | 5980 ft | 223 kts | 267° |
| 2026-05-05 15:03 | 51.61543 | -0.38770 | 5981 ft | 223 kts | 266° |
| 2026-05-05 15:04 | 51.61396 | -0.41253 | 5980 ft | 223 kts | 266° |
| 2026-05-05 15:04 | 51.61247 | -0.43738 | 5979 ft | 222 kts | 266° |
| 2026-05-05 15:04 | 51.61101 | -0.46208 | 5982 ft | 223 kts | 265° |
| 2026-05-05 15:04 | 51.60953 | -0.48691 | 5980 ft | 222 kts | 266° |
| 2026-05-05 15:05 | 51.60658 | -0.53634 | 5981 ft | 222 kts | 266° |
| 2026-05-05 15:05 | 51.60510 | -0.56101 | 5981 ft | 222 kts | 266° |
| 2026-05-05 15:05 | 51.60358 | -0.58579 | 5982 ft | 223 kts | 266° |
| 2026-05-05 15:06 | 51.60206 | -0.61054 | 5982 ft | 221 kts | 265° |
| 2026-05-05 15:06 | 51.60055 | -0.63526 | 5983 ft | 222 kts | 266° |
| 2026-05-05 15:06 | 51.59902 | -0.66030 | 5896 ft | 233 kts | 266° |
| 2026-05-05 15:06 | 51.59736 | -0.68695 | 5612 ft | 242 kts | 266° |
| 2026-05-05 15:07 | 51.59565 | -0.71381 | 5348 ft | 241 kts | 265° |
| 2026-05-05 15:07 | 51.59394 | -0.74054 | 5096 ft | 241 kts | 266° |
| 2026-05-05 15:07 | 51.59093 | -0.76695 | 4862 ft | 240 kts | 247° |
| 2026-05-05 15:07 | 51.58075 | -0.78766 | 4639 ft | 239 kts | 213° |
| 2026-05-05 15:08 | 51.56525 | -0.79634 | 4404 ft | 236 kts | 179° |
| 2026-05-05 15:08 | 51.54934 | -0.79402 | 4177 ft | 231 kts | 171° |
| 2026-05-05 15:08 | 51.53414 | -0.78774 | 4002 ft | 224 kts | 158° |
| 2026-05-05 15:08 | 51.51940 | -0.77899 | 3821 ft | 226 kts | 157° |
| 2026-05-05 15:09 | 51.50482 | -0.76986 | 3544 ft | 224 kts | 156° |
| 2026-05-05 15:09 | 51.49122 | -0.75820 | 3262 ft | 220 kts | 137° |
| 2026-05-05 15:09 | 51.48107 | -0.74019 | 2978 ft | 216 kts | 115° |
| 2026-05-05 15:09 | 51.47649 | -0.71776 | 2700 ft | 209 kts | 92° |
| 2026-05-05 15:10 | 51.47639 | -0.69517 | 2540 ft | 196 kts | 87° |
| 2026-05-05 15:10 | 51.47654 | -0.67347 | 2441 ft | 189 kts | 85° |
| 2026-05-05 15:10 | 51.47666 | -0.65287 | 2202 ft | 181 kts | 86° |
| 2026-05-05 15:10 | 51.47678 | -0.63308 | 1959 ft | 174 kts | 87° |
| 2026-05-05 15:11 | 51.47687 | -0.61427 | 1729 ft | 163 kts | 86° |
| 2026-05-05 15:11 | 51.47696 | -0.59657 | 1518 ft | 155 kts | 85° |
| 2026-05-05 15:11 | 51.47704 | -0.57971 | 1326 ft | 147 kts | 86° |
| 2026-05-05 15:11 | 51.47712 | -0.56383 | 1127 ft | 138 kts | 85° |
| 2026-05-05 15:12 | 51.47720 | -0.54826 | 933 ft | 140 kts | 86° |
| 2026-05-05 15:12 | 51.47727 | -0.53276 | 728 ft | 141 kts | 86° |
| 2026-05-05 15:12 | 51.47735 | -0.51729 | 528 ft | 141 kts | 87° |
| 2026-05-05 15:12 | 51.47748 | -0.50144 | 321 ft | 143 kts | 88° |
| 2026-05-05 15:13 | 51.47747 | -0.48534 | 142 ft | 145 kts | 88° |
| 2026-05-05 15:13 | 51.47757 | -0.47025 | 90 ft | 114 kts | 90° |
| 2026-05-05 15:13 | 51.47761 | -0.45967 | 84 ft | 76 kts | 90° |
| 2026-05-05 15:13 | 51.47734 | -0.45504 | 87 ft | 27 kts | 140° |
| 2026-05-05 15:14 | 51.47646 | -0.45469 | 85 ft | 2 kts | 180° |
| 2026-05-05 15:16 | 51.47639 | -0.45469 | 85 ft | 3 kts | 180° |
| 2026-05-05 15:16 | 51.47616 | -0.45469 | 85 ft | 4 kts | 180° |
| 2026-05-05 15:16 | 51.47588 | -0.45469 | 86 ft | 4 kts | 180° |
| 2026-05-05 15:17 | 51.47535 | -0.45479 | 88 ft | 11 kts | 207° |
| 2026-05-05 15:17 | 51.47507 | -0.45600 | 88 ft | 13 kts | 270° |
| 2026-05-05 15:17 | 51.47513 | -0.45763 | 88 ft | 16 kts | 279° |
| 2026-05-05 15:17 | 51.47518 | -0.45954 | 85 ft | 18 kts | 271° |
| 2026-05-05 15:18 | 51.47517 | -0.46174 | 85 ft | 21 kts | 269° |
| 2026-05-05 15:18 | 51.47515 | -0.46421 | 85 ft | 23 kts | 269° |
| 2026-05-05 15:18 | 51.47513 | -0.46655 | 85 ft | 22 kts | 272° |
| 2026-05-05 15:18 | 51.47494 | -0.46897 | 85 ft | 23 kts | 268° |
| 2026-05-05 15:19 | 51.47493 | -0.47155 | 85 ft | 23 kts | 270° |
| 2026-05-05 15:19 | 51.47491 | -0.47420 | 85 ft | 25 kts | 269° |
| 2026-05-05 15:19 | 51.47490 | -0.47686 | 85 ft | 23 kts | 269° |
| 2026-05-05 15:19 | 51.47489 | -0.47945 | 85 ft | 24 kts | 271° |
| 2026-05-05 15:20 | 51.47489 | -0.48189 | 85 ft | 16 kts | 269° |
| 2026-05-05 15:20 | 51.47488 | -0.48261 | 85 ft | 2 kts | 269° |
| 2026-05-05 15:20 | 51.47488 | -0.48327 | 85 ft | 8 kts | 269° |
| 2026-05-05 15:20 | 51.47488 | -0.48436 | 86 ft | 13 kts | 271° |
| 2026-05-05 15:21 | 51.47486 | -0.48629 | 87 ft | 20 kts | 268° |
| 2026-05-05 15:21 | 51.47485 | -0.48742 | 87 ft | 10 kts | 270° |
| 2026-05-05 15:21 | 51.47483 | -0.48823 | 86 ft | 5 kts | 259° |
| 2026-05-05 15:21 | 51.47451 | -0.48830 | 87 ft | 7 kts | 181° |
| 2026-05-05 15:22 | 51.47416 | -0.48831 | 85 ft | 2 kts | 180° |
| 2026-05-05 15:22 | 51.47409 | -0.48831 | 85 ft | 1 kts | 180° |
| 2026-05-05 15:22 | 51.47401 | -0.48831 | 85 ft | 1 kts | 180° |